createdAt,value
2023-04-22T00:00:28.924Z,2.20
2023-04-22T00:02:58.004Z,2.03
2023-04-22T00:05:26.836Z,2.10
2023-04-22T00:07:55.541Z,2.20
2023-04-22T00:10:25.685Z,2.05
2023-04-22T00:12:54.292Z,2.17
2023-04-22T00:15:22.969Z,2.75
2023-04-22T00:17:51.627Z,2.60
2023-04-22T00:20:21.841Z,2.53
2023-04-22T00:22:50.585Z,2.60
2023-04-22T00:25:19.522Z,2.03
2023-04-22T00:27:49.660Z,1.98
2023-04-22T00:30:18.264Z,2.22
2023-04-22T00:32:47.188Z,1.98
2023-04-22T00:35:16.215Z,2.50
2023-04-22T00:37:44.882Z,2.08
2023-04-22T00:40:14.019Z,2.00
2023-04-22T00:42:44.486Z,2.40
2023-04-22T00:45:17.916Z,2.17
2023-04-22T00:47:46.901Z,2.40
2023-04-22T00:50:16.016Z,2.08
2023-04-22T00:52:44.661Z,2.38
2023-04-22T00:55:13.788Z,2.10
2023-04-22T00:57:42.568Z,2.88
2023-04-22T01:00:12.106Z,2.30
2023-04-22T01:02:42.416Z,1.95
2023-04-22T01:05:11.728Z,2.10
2023-04-22T01:07:40.465Z,2.28
2023-04-22T01:10:09.668Z,2.28
2023-04-22T01:12:38.326Z,2.33
2023-04-22T01:15:07.700Z,2.33
2023-04-22T01:17:36.459Z,2.30
2023-04-22T01:20:10.072Z,2.30
2023-04-22T01:22:42.148Z,2.83
2023-04-22T01:25:12.826Z,2.03
2023-04-22T01:27:42.240Z,2.25
2023-04-22T01:30:11.754Z,2.20
2023-04-22T01:32:41.318Z,2.45
2023-04-22T01:35:10.367Z,2.05
2023-04-22T01:37:39.221Z,2.38
2023-04-22T01:40:09.226Z,2.33
2023-04-22T01:42:39.435Z,1.80
2023-04-22T01:45:08.710Z,2.15
2023-04-22T01:47:37.372Z,2.05
2023-04-22T01:50:06.779Z,1.85
2023-04-22T01:52:35.814Z,1.70
2023-04-22T01:55:04.561Z,2.10
2023-04-22T01:57:33.294Z,2.10
2023-04-22T02:00:05.636Z,2.03
2023-04-22T02:02:41.270Z,2.00
2023-04-22T02:05:10.736Z,2.25
2023-04-22T02:07:39.841Z,2.17
2023-04-22T02:10:09.815Z,2.10
2023-04-22T02:12:38.652Z,1.80
2023-04-22T02:15:09.582Z,2.47
2023-04-22T02:17:38.547Z,2.15
2023-04-22T02:20:07.947Z,2.00
2023-04-22T02:22:36.903Z,2.20
2023-04-22T02:25:05.937Z,2.22
2023-04-22T02:27:34.769Z,2.28
2023-04-22T02:30:04.151Z,2.22
2023-04-22T02:32:36.445Z,2.00
2023-04-22T02:35:05.365Z,2.85
2023-04-22T02:37:34.039Z,2.83
2023-04-22T02:40:02.845Z,2.42
2023-04-22T02:42:32.603Z,3.15
2023-04-22T02:45:01.589Z,2.50
2023-04-22T02:47:32.761Z,2.22
2023-04-22T02:50:02.943Z,2.45
2023-04-22T02:52:31.831Z,2.35
2023-04-22T02:55:00.748Z,2.20
2023-04-22T02:57:29.661Z,2.08
2023-04-22T02:59:58.440Z,2.40
2023-04-22T03:02:27.445Z,2.78
2023-04-22T03:05:08.492Z,2.10
2023-04-22T03:07:37.204Z,2.35
2023-04-22T03:10:06.152Z,2.15
2023-04-22T03:12:35.782Z,2.30
2023-04-22T03:15:05.155Z,2.55
2023-04-22T03:17:34.746Z,2.20
2023-04-22T03:20:08.948Z,2.40
2023-04-22T03:22:37.782Z,2.63
2023-04-22T03:25:08.228Z,2.60
2023-04-22T03:27:37.029Z,2.47
2023-04-22T03:30:06.400Z,2.47
2023-04-22T03:32:35.664Z,2.05
2023-04-22T03:35:26.241Z,2.20
2023-04-22T03:37:56.157Z,2.15
2023-04-22T03:40:30.554Z,2.50
2023-04-22T03:42:59.551Z,2.33
2023-04-22T03:45:28.562Z,2.50
2023-04-22T03:48:13.066Z,2.60
2023-04-22T03:50:49.139Z,2.47
2023-04-22T03:53:18.627Z,2.25
2023-04-22T03:55:47.487Z,2.40
2023-04-22T03:58:17.526Z,2.35
2023-04-22T04:00:47.079Z,2.28
2023-04-22T04:03:18.821Z,2.78
2023-04-22T04:05:52.337Z,2.33
2023-04-22T04:08:22.677Z,2.35
2023-04-22T04:10:51.373Z,2.30
2023-04-22T04:13:20.034Z,2.03
2023-04-22T04:16:09.154Z,2.30
2023-04-22T04:18:40.958Z,2.50
2023-04-22T04:21:11.509Z,2.22
2023-04-22T04:23:46.751Z,2.50
2023-04-22T04:26:16.748Z,2.47
2023-04-22T04:28:49.348Z,2.33
2023-04-22T04:31:19.943Z,2.97
2023-04-22T04:33:48.706Z,2.83
2023-04-22T04:36:18.977Z,2.33
2023-04-22T04:38:48.899Z,2.63
2023-04-22T04:41:17.626Z,2.45
2023-04-22T04:43:47.709Z,2.40
2023-04-22T04:46:32.477Z,2.30
2023-04-22T04:49:01.960Z,2.20
2023-04-22T04:51:35.240Z,2.65
2023-04-22T04:54:03.987Z,2.00
2023-04-22T04:56:37.611Z,2.47
2023-04-22T04:59:07.137Z,2.10
2023-04-22T05:01:36.585Z,2.05
2023-04-22T05:04:10.034Z,2.40
2023-04-22T05:06:43.279Z,2.20
2023-04-22T05:09:12.096Z,2.20
2023-04-22T05:11:41.459Z,2.05
2023-04-22T05:14:15.945Z,2.03
2023-04-22T05:16:47.555Z,2.40
2023-04-22T05:19:17.102Z,1.92
2023-04-22T05:21:48.131Z,1.92
2023-04-22T05:24:18.385Z,2.20
2023-04-22T05:26:47.763Z,2.00
2023-04-22T05:29:20.175Z,1.83
2023-04-22T05:31:49.291Z,2.05
2023-04-22T05:34:18.308Z,1.90
2023-04-22T05:36:48.591Z,1.58
2023-04-22T05:39:17.676Z,1.90
2023-04-22T05:41:47.164Z,1.85
2023-04-22T05:44:17.673Z,1.88
2023-04-22T05:46:46.812Z,2.00
2023-04-22T05:49:16.021Z,1.90
2023-04-22T05:52:09.509Z,1.85
2023-04-22T05:54:50.682Z,1.73
2023-04-22T05:57:19.994Z,1.58
2023-04-22T05:59:48.875Z,2.30
2023-04-22T06:02:18.203Z,1.90
2023-04-22T06:04:48.031Z,1.63
2023-04-22T06:07:18.329Z,2.35
2023-04-22T06:09:47.135Z,1.65
2023-04-22T06:12:17.646Z,2.33
2023-04-22T06:14:46.529Z,2.17
2023-04-22T06:17:15.440Z,2.22
2023-04-22T06:19:44.183Z,2.10
2023-04-22T06:22:15.679Z,2.10
2023-04-22T06:24:47.670Z,2.20
2023-04-22T06:27:18.070Z,2.10
2023-04-22T06:29:46.856Z,2.05
2023-04-22T06:32:16.375Z,1.98
2023-04-22T06:34:45.148Z,2.15
2023-04-22T06:37:14.036Z,2.10
2023-04-22T06:39:43.127Z,2.47
2023-04-22T06:42:30.194Z,2.40
2023-04-22T06:45:17.467Z,1.83
2023-04-22T06:48:04.499Z,2.10
2023-04-22T06:50:47.423Z,1.92
2023-04-22T06:53:16.414Z,2.03
2023-04-22T06:55:45.565Z,2.45
2023-04-22T06:58:15.545Z,2.20
2023-04-22T07:00:44.702Z,1.90
2023-04-22T07:03:13.529Z,2.10
2023-04-22T07:05:42.966Z,1.70
2023-04-22T07:08:11.917Z,1.88
2023-04-22T07:10:41.136Z,1.80
2023-04-22T07:13:34.042Z,1.60
2023-04-22T07:16:02.959Z,1.80
2023-04-22T07:18:32.096Z,1.65
2023-04-22T07:21:01.072Z,1.63
2023-04-22T07:23:36.792Z,1.92
2023-04-22T07:26:05.801Z,1.90
2023-04-22T07:28:36.008Z,1.52
2023-04-22T07:31:04.821Z,1.63
2023-04-22T07:33:33.585Z,1.75
2023-04-22T07:36:02.409Z,1.83
2023-04-22T07:38:31.083Z,1.60
2023-04-22T07:40:59.880Z,1.80
2023-04-22T07:43:29.010Z,1.65
2023-04-22T07:45:59.545Z,1.50
2023-04-22T07:48:28.534Z,1.30
2023-04-22T07:50:57.428Z,1.63
2023-04-22T07:53:26.242Z,1.98
2023-04-22T07:55:54.985Z,1.75
2023-04-22T07:58:23.974Z,1.58
2023-04-22T08:00:52.677Z,1.52
2023-04-22T08:03:23.055Z,1.45
2023-04-22T08:05:53.206Z,1.67
2023-04-22T08:08:22.188Z,1.30
2023-04-22T08:10:51.043Z,1.27
2023-04-22T08:13:20.344Z,1.50
2023-04-22T08:15:49.383Z,1.55
2023-04-22T08:18:18.090Z,1.40
2023-04-22T08:20:48.202Z,1.40
2023-04-22T08:23:16.902Z,1.52
2023-04-22T08:25:45.650Z,1.70
2023-04-22T08:28:14.358Z,1.40
2023-04-22T08:30:43.085Z,1.70
2023-04-22T08:33:12.080Z,1.60
2023-04-22T08:35:40.821Z,1.50
2023-04-22T08:38:10.996Z,1.27
2023-04-22T08:40:42.689Z,1.30
2023-04-22T08:43:11.796Z,1.52
2023-04-22T08:45:41.630Z,1.40
2023-04-22T08:48:11.428Z,1.30
2023-04-22T08:50:40.633Z,1.20
2023-04-22T08:53:11.065Z,1.50
2023-04-22T08:55:41.103Z,1.38
2023-04-22T08:58:10.038Z,1.30
2023-04-22T09:00:38.739Z,1.23
2023-04-22T09:03:08.452Z,1.20
2023-04-22T09:05:39.018Z,1.07
2023-04-22T09:08:08.250Z,1.00
2023-04-22T09:10:40.227Z,1.15
2023-04-22T09:13:09.121Z,1.20
2023-04-22T09:15:37.934Z,1.20
2023-04-22T09:18:06.667Z,1.45
2023-04-22T09:20:35.509Z,1.30
2023-04-22T09:23:05.240Z,1.30
2023-04-22T09:25:37.838Z,1.73
2023-04-22T09:28:08.003Z,1.45
2023-04-22T09:30:37.903Z,1.30
2023-04-22T09:33:08.261Z,1.13
2023-04-22T09:35:38.074Z,1.10
2023-04-22T09:38:08.057Z,1.15
2023-04-22T09:40:37.439Z,1.35
2023-04-22T09:43:07.087Z,1.38
2023-04-22T09:45:38.071Z,1.45
2023-04-22T09:48:09.155Z,1.50
2023-04-22T09:50:38.610Z,1.20
2023-04-22T09:53:08.136Z,1.25
2023-04-22T09:55:37.775Z,1.10
2023-04-22T09:58:08.784Z,1.10
2023-04-22T10:00:39.674Z,1.13
2023-04-22T10:03:10.867Z,1.23
2023-04-22T10:05:41.449Z,1.35
2023-04-22T10:08:11.013Z,1.20
2023-04-22T10:10:40.540Z,1.42
2023-04-22T10:13:09.709Z,1.20
2023-04-22T10:15:41.243Z,1.45
2023-04-22T10:18:12.170Z,1.30
2023-04-22T10:20:42.023Z,1.15
2023-04-22T10:23:14.396Z,1.00
2023-04-22T10:25:43.061Z,1.20
2023-04-22T10:28:14.463Z,1.42
2023-04-22T10:30:44.779Z,1.30
2023-04-22T10:33:43.701Z,1.48
2023-04-22T10:36:13.438Z,1.10
2023-04-22T10:38:42.846Z,1.35
2023-04-22T10:41:15.630Z,1.50
2023-04-22T10:43:46.855Z,1.65
2023-04-22T10:46:35.369Z,1.55
2023-04-22T10:49:09.773Z,1.38
2023-04-22T10:51:41.582Z,1.50
2023-04-22T10:54:10.527Z,1.50
2023-04-22T10:57:02.037Z,1.30
2023-04-22T10:59:30.902Z,1.50
2023-04-22T11:02:02.666Z,1.63
2023-04-22T11:04:32.834Z,1.65
2023-04-22T11:07:17.799Z,1.33
2023-04-22T11:09:47.349Z,1.55
2023-04-22T11:12:38.286Z,1.27
2023-04-22T11:15:07.689Z,1.40
2023-04-22T11:17:37.041Z,1.20
2023-04-22T11:20:08.105Z,1.23
2023-04-22T11:22:36.948Z,1.40
2023-04-22T11:25:06.505Z,1.23
2023-04-22T11:27:35.388Z,1.60
2023-04-22T11:30:04.232Z,1.40
2023-04-22T11:32:34.056Z,1.42
2023-04-22T11:35:05.054Z,1.45
2023-04-22T11:37:41.482Z,1.35
2023-04-22T11:40:27.920Z,1.75
2023-04-22T11:42:58.655Z,1.20
2023-04-22T11:45:27.892Z,1.48
2023-04-22T11:47:56.895Z,1.60
2023-04-22T11:50:26.731Z,2.45
2023-04-22T11:52:57.772Z,1.50
2023-04-22T11:55:30.345Z,1.85
2023-04-22T11:57:59.613Z,1.60
2023-04-22T12:00:31.734Z,1.85
2023-04-22T12:03:01.420Z,1.50
2023-04-22T12:05:37.528Z,1.75
2023-04-22T12:08:10.782Z,1.63
2023-04-22T12:10:43.521Z,1.73
2023-04-22T12:13:12.585Z,1.60
2023-04-22T12:15:42.134Z,1.67
2023-04-22T12:18:12.548Z,1.70
2023-04-22T12:20:41.983Z,1.40
2023-04-22T12:23:16.033Z,1.42
2023-04-22T12:25:45.323Z,1.45
2023-04-22T12:28:14.303Z,1.50
2023-04-22T12:30:43.064Z,1.63
2023-04-22T12:33:12.313Z,1.67
2023-04-22T12:35:41.273Z,1.52
2023-04-22T12:38:10.014Z,1.30
2023-04-22T12:40:40.309Z,1.63
2023-04-22T12:43:08.999Z,1.90
2023-04-22T12:45:37.770Z,1.30
2023-04-22T12:48:06.678Z,1.50
2023-04-22T12:50:35.415Z,1.83
2023-04-22T12:53:04.097Z,1.60
2023-04-22T12:55:32.890Z,1.65
2023-04-22T12:58:04.189Z,1.83
2023-04-22T13:00:33.357Z,1.42
2023-04-22T13:03:02.169Z,1.40
2023-04-22T13:05:30.896Z,1.38
2023-04-22T13:08:06.422Z,1.80
2023-04-22T13:10:36.093Z,1.55
2023-04-22T13:15:39.900Z,1.63
2023-04-22T13:18:08.834Z,1.30
2023-04-22T13:20:37.916Z,1.33
2023-04-22T13:23:06.740Z,1.40
2023-04-22T13:25:36.153Z,1.33
2023-04-22T13:28:06.683Z,1.55
2023-04-22T13:30:35.497Z,1.52
2023-04-22T13:33:04.313Z,1.70
2023-04-22T13:35:33.303Z,1.50
2023-04-22T13:38:02.025Z,1.55
2023-04-22T13:40:30.840Z,1.30
2023-04-22T13:42:59.564Z,1.20
2023-04-22T13:45:29.783Z,1.40
2023-04-22T13:47:58.683Z,1.70
2023-04-22T13:50:27.364Z,1.58
2023-04-22T13:52:56.501Z,1.38
2023-04-22T13:55:26.690Z,1.40
2023-04-22T13:57:55.525Z,1.30
2023-04-22T14:00:24.350Z,1.55
2023-04-22T14:02:54.607Z,1.55
2023-04-22T14:05:23.434Z,1.20
2023-04-22T14:07:52.417Z,1.40
2023-04-22T14:10:22.147Z,1.60
2023-04-22T14:12:51.331Z,1.30
2023-04-22T14:15:20.076Z,1.42
2023-04-22T14:17:49.599Z,1.50
2023-04-22T14:20:20.052Z,1.48
2023-04-22T14:22:48.902Z,1.50
2023-04-22T14:25:17.763Z,1.40
2023-04-22T14:27:46.479Z,1.30
2023-04-22T14:30:16.190Z,1.25
2023-04-22T14:32:45.506Z,1.52
2023-04-22T14:35:14.332Z,1.50
2023-04-22T14:37:45.186Z,1.85
2023-04-22T14:40:14.347Z,1.52
2023-04-22T14:42:43.070Z,2.00
2023-04-22T14:45:14.563Z,1.38
2023-04-22T14:47:43.318Z,2.22
2023-04-22T14:50:12.467Z,1.90
2023-04-22T14:52:41.404Z,1.88
2023-04-22T14:55:19.893Z,1.63
2023-04-22T14:57:53.195Z,1.73
2023-04-22T15:00:22.003Z,1.85
2023-04-22T15:02:50.870Z,1.40
2023-04-22T15:05:19.747Z,1.55
2023-04-22T15:07:48.464Z,1.80
2023-04-22T15:10:19.209Z,1.77
2023-04-22T15:12:47.968Z,1.50
2023-04-22T15:15:18.359Z,1.40
2023-04-22T15:17:47.572Z,1.55
2023-04-22T15:20:16.474Z,2.22
2023-04-22T15:22:45.702Z,1.58
2023-04-22T15:25:16.036Z,1.60
2023-04-22T15:27:48.062Z,2.42
2023-04-22T15:30:16.867Z,1.77
2023-04-22T15:32:45.638Z,1.67
2023-04-22T15:35:14.495Z,1.60
2023-04-22T15:37:43.171Z,2.20
2023-04-22T15:40:12.014Z,1.90
2023-04-22T15:42:40.637Z,1.90
2023-04-22T15:45:11.389Z,1.70
2023-04-22T15:47:40.241Z,1.80
2023-04-22T15:50:09.915Z,2.50
2023-04-22T15:52:39.562Z,2.35
2023-04-22T15:55:09.415Z,1.90
2023-04-22T15:57:38.202Z,1.65
2023-04-22T16:00:11.876Z,1.60
2023-04-22T16:02:54.928Z,1.40
2023-04-22T16:05:25.066Z,1.77
2023-04-22T16:07:54.402Z,1.40
2023-04-22T16:10:23.274Z,1.40
2023-04-22T16:12:53.335Z,1.33
2023-04-22T16:15:23.592Z,1.58
2023-04-22T16:17:53.958Z,1.60
2023-04-22T16:20:22.782Z,1.50
2023-04-22T16:22:51.385Z,1.70
2023-04-22T16:25:20.285Z,1.70
2023-04-22T16:27:49.045Z,1.50
2023-04-22T16:30:17.970Z,1.23
2023-04-22T16:32:46.856Z,1.33
2023-04-22T16:35:16.915Z,1.67
2023-04-22T16:37:45.805Z,1.42
2023-04-22T16:40:14.592Z,1.38
2023-04-22T16:42:43.204Z,1.60
2023-04-22T16:45:12.202Z,1.60
2023-04-22T16:47:41.121Z,1.40
2023-04-22T16:50:12.182Z,1.50
2023-04-22T16:52:42.504Z,1.40
2023-04-22T16:55:11.513Z,1.40
2023-04-22T16:57:40.132Z,1.67
2023-04-22T17:00:09.508Z,1.35
2023-04-22T17:02:38.437Z,1.20
2023-04-22T17:05:07.492Z,1.45
2023-04-22T17:07:36.307Z,1.38
2023-04-22T17:10:06.821Z,1.35
2023-04-22T17:12:35.885Z,1.50
2023-04-22T17:15:05.104Z,1.10
2023-04-22T17:17:34.061Z,1.40
2023-04-22T17:20:02.736Z,1.58
2023-04-22T17:22:31.581Z,1.70
2023-04-22T17:25:00.557Z,1.73
2023-04-22T17:27:31.685Z,1.85
2023-04-22T17:30:01.334Z,1.48
2023-04-22T17:32:30.354Z,1.40
2023-04-22T17:34:59.428Z,1.60
2023-04-22T17:37:28.348Z,1.60
2023-04-22T17:39:57.652Z,1.30
2023-04-22T17:42:38.895Z,1.42
2023-04-22T17:45:15.708Z,1.45
2023-04-22T17:47:44.629Z,1.38
2023-04-22T17:50:13.744Z,1.55
2023-04-22T17:52:42.690Z,1.60
2023-04-22T17:55:12.041Z,1.83
2023-04-22T17:57:42.268Z,1.25
2023-04-22T18:00:11.762Z,1.35
2023-04-22T18:02:43.228Z,1.67
2023-04-22T18:05:12.569Z,1.60
2023-04-22T18:07:41.285Z,1.35
2023-04-22T18:10:10.978Z,1.85
2023-04-22T18:12:39.739Z,1.60
2023-04-22T18:15:09.127Z,1.40
2023-04-22T18:17:38.084Z,1.45
2023-04-22T18:20:18.146Z,1.40
2023-04-22T18:22:47.963Z,1.70
2023-04-22T18:25:17.064Z,1.77
2023-04-22T18:27:46.334Z,1.50
2023-04-22T18:30:15.136Z,1.70
2023-04-22T18:32:43.872Z,1.63
2023-04-22T18:35:15.859Z,1.85
2023-04-22T18:37:44.656Z,1.75
2023-04-22T18:40:13.963Z,2.10
2023-04-22T18:42:44.979Z,1.60
2023-04-22T18:45:15.619Z,1.80
2023-04-22T18:47:45.824Z,1.73
2023-04-22T18:50:16.120Z,1.70
2023-04-22T18:52:44.950Z,2.10
2023-04-22T18:55:13.946Z,1.58
2023-04-22T18:57:43.712Z,1.52
2023-04-22T19:00:13.730Z,1.40
2023-04-22T19:02:42.750Z,1.63
2023-04-22T19:05:13.543Z,1.38
2023-04-22T19:07:45.231Z,1.50
2023-04-22T19:10:14.205Z,1.42
2023-04-22T19:12:42.915Z,1.60
2023-04-22T19:15:11.949Z,1.35
2023-04-22T19:17:42.518Z,1.65
2023-04-22T19:20:11.841Z,1.73
2023-04-22T19:22:40.480Z,1.30
2023-04-22T19:25:11.221Z,1.60
2023-04-22T19:27:39.903Z,1.48
2023-04-22T19:30:09.248Z,1.30
2023-04-22T19:32:38.526Z,1.40
2023-04-22T19:35:08.939Z,1.40
2023-04-22T19:37:37.631Z,1.45
2023-04-22T19:40:07.006Z,1.80
2023-04-22T19:42:37.302Z,1.40
2023-04-22T19:45:07.384Z,1.60
2023-04-22T19:47:36.342Z,1.33
2023-04-22T19:50:05.436Z,1.38
2023-04-22T19:52:35.390Z,1.70
2023-04-22T19:55:08.892Z,1.33
2023-04-22T19:57:41.867Z,1.35
2023-04-22T20:00:11.968Z,1.50
2023-04-22T20:02:43.860Z,1.35
2023-04-22T20:05:13.149Z,1.30
2023-04-22T20:07:44.549Z,1.52
2023-04-22T20:10:13.523Z,1.67
2023-04-22T20:12:43.749Z,1.13
2023-04-22T20:15:12.953Z,1.27
2023-04-22T20:17:41.881Z,1.30
2023-04-22T20:20:13.328Z,1.10
2023-04-22T20:22:42.577Z,1.98
2023-04-22T20:25:13.893Z,1.10
2023-04-22T20:27:44.778Z,1.30
2023-04-22T20:30:14.692Z,3.47
2023-04-22T20:32:43.599Z,2.03
2023-04-22T20:35:16.676Z,1.40
2023-04-22T20:37:47.229Z,1.50
2023-04-22T20:40:16.184Z,1.50
2023-04-22T20:42:46.781Z,1.20
2023-04-22T20:45:17.799Z,1.35
2023-04-22T20:47:46.981Z,1.10
2023-04-22T20:50:16.093Z,1.25
2023-04-22T20:52:44.971Z,1.75
2023-04-22T20:55:13.602Z,1.30
2023-04-22T20:57:42.417Z,1.17
2023-04-22T21:00:13.177Z,1.48
2023-04-22T21:02:42.321Z,1.40
2023-04-22T21:05:11.953Z,1.40
2023-04-22T21:07:41.511Z,1.35
2023-04-22T21:10:11.207Z,1.38
2023-04-22T21:12:40.189Z,1.33
2023-04-22T21:15:09.689Z,1.30
2023-04-22T21:17:44.527Z,1.45
2023-04-22T21:20:14.046Z,1.92
2023-04-22T21:22:44.799Z,1.50
2023-04-22T21:25:19.016Z,1.30
2023-04-22T21:27:47.860Z,1.10
2023-04-22T21:30:17.144Z,1.20
2023-04-22T21:32:47.367Z,1.33
2023-04-22T21:35:16.172Z,1.38
2023-04-22T21:37:44.943Z,1.25
2023-04-22T21:40:14.137Z,1.30
2023-04-22T21:42:42.967Z,1.67
2023-04-22T21:45:12.118Z,1.20
2023-04-22T21:47:40.831Z,1.10
2023-04-22T21:50:11.350Z,1.20
2023-04-22T21:52:40.128Z,1.40
2023-04-22T21:55:09.106Z,1.48
2023-04-22T21:57:37.843Z,1.33
2023-04-22T22:00:07.551Z,1.38
2023-04-22T22:02:36.409Z,1.15
2023-04-22T22:05:05.462Z,1.27
2023-04-22T22:07:38.467Z,1.20
2023-04-22T22:10:07.459Z,1.30
2023-04-22T22:12:36.277Z,1.20
2023-04-22T22:15:05.582Z,1.30
2023-04-22T22:17:34.383Z,1.50
2023-04-22T22:20:03.133Z,1.35
2023-04-22T22:22:33.058Z,1.30
2023-04-22T22:25:04.426Z,1.23
2023-04-22T22:27:33.276Z,1.05
2023-04-22T22:30:02.030Z,1.25
2023-04-22T22:32:32.650Z,1.25
2023-04-22T22:35:01.434Z,1.30
2023-04-22T22:37:30.388Z,0.90
2023-04-22T22:39:59.213Z,1.20
2023-04-22T22:42:29.373Z,1.30
2023-04-22T22:44:58.649Z,1.17
2023-04-22T22:47:27.660Z,1.00
2023-04-22T22:49:56.380Z,1.13
2023-04-22T22:52:25.133Z,1.35
2023-04-22T22:54:53.804Z,1.10
2023-04-22T22:57:22.502Z,1.30
2023-04-22T22:59:52.642Z,1.20
2023-04-22T23:02:21.618Z,1.38
2023-04-22T23:04:50.617Z,1.10
2023-04-22T23:07:19.306Z,1.30
2023-04-22T23:09:48.098Z,1.40
2023-04-22T23:12:17.297Z,1.42
2023-04-22T23:14:46.117Z,1.90
2023-04-22T23:17:17.384Z,1.38
2023-04-22T23:19:46.579Z,1.20
2023-04-22T23:22:16.020Z,1.10
2023-04-22T23:24:45.088Z,1.25
2023-04-22T23:27:13.997Z,1.60
2023-04-22T23:29:43.956Z,1.27
2023-04-22T23:32:16.254Z,1.50
2023-04-22T23:34:50.771Z,1.50
2023-04-22T23:37:21.299Z,1.20
2023-04-22T23:39:50.009Z,1.45
2023-04-22T23:42:18.650Z,1.33
2023-04-22T23:44:47.534Z,1.40
2023-04-22T23:47:16.597Z,1.35
2023-04-22T23:49:45.399Z,1.23
2023-04-22T23:52:15.500Z,1.50
2023-04-22T23:54:45.108Z,1.48
2023-04-22T23:57:14.098Z,1.52
2023-04-22T23:59:43.359Z,1.33
